createdAt,value
2023-05-08T00:01:15.757Z,59.74
2023-05-08T00:03:17.122Z,60.22
2023-05-08T00:05:18.504Z,59.63
2023-05-08T00:07:19.804Z,59.79
2023-05-08T00:09:21.208Z,59.96
2023-05-08T00:11:22.546Z,59.87
2023-05-08T00:13:24.032Z,59.92
2023-05-08T00:15:25.390Z,59.97
2023-05-08T00:17:26.790Z,59.83
2023-05-08T00:19:28.147Z,59.65
2023-05-08T00:21:29.489Z,59.70
2023-05-08T00:23:30.837Z,60.25
2023-05-08T00:25:32.149Z,60.22
2023-05-08T00:27:33.458Z,60.06
2023-05-08T00:29:34.813Z,59.63
2023-05-08T00:31:36.155Z,59.88
2023-05-08T00:33:37.491Z,59.93
2023-05-08T00:35:41.099Z,60.42
2023-05-08T00:37:43.714Z,59.93
2023-05-08T00:39:45.064Z,60.41
2023-05-08T00:41:46.359Z,60.19
2023-05-08T00:43:47.690Z,60.23
2023-05-08T00:45:49.154Z,60.26
2023-05-08T00:47:50.674Z,59.89
2023-05-08T00:49:52.015Z,60.04
2023-05-08T00:51:53.320Z,60.27
2023-05-08T00:53:54.662Z,60.35
2023-05-08T00:55:56.009Z,60.61
2023-05-08T00:57:57.301Z,60.36
2023-05-08T00:59:58.600Z,60.47
2023-05-08T01:01:59.922Z,60.35
2023-05-08T01:04:01.291Z,60.50
2023-05-08T01:06:02.638Z,60.20
2023-05-08T01:08:04.026Z,60.76
2023-05-08T01:10:05.355Z,60.52
2023-05-08T01:12:06.668Z,60.52
2023-05-08T01:14:07.978Z,60.59
2023-05-08T01:16:09.316Z,60.92
2023-05-08T01:18:10.730Z,60.67
2023-05-08T01:20:12.358Z,60.51
2023-05-08T01:22:13.806Z,60.67
2023-05-08T01:24:15.110Z,60.76
2023-05-08T01:26:16.451Z,60.67
2023-05-08T01:28:17.764Z,60.79
2023-05-08T01:30:19.092Z,60.64
2023-05-08T01:32:20.895Z,60.78
2023-05-08T01:34:22.252Z,60.57
2023-05-08T01:36:23.558Z,60.31
2023-05-08T01:38:24.891Z,60.30
2023-05-08T01:40:26.231Z,59.92
2023-05-08T01:42:27.590Z,60.42
2023-05-08T01:44:28.936Z,60.28
2023-05-08T01:46:30.302Z,60.39
2023-05-08T01:48:31.914Z,60.25
2023-05-08T01:50:33.351Z,60.14
2023-05-08T01:52:34.664Z,59.71
2023-05-08T01:54:36.156Z,59.40
2023-05-08T01:56:38.270Z,59.39
2023-05-08T01:58:39.995Z,59.85
2023-05-08T02:00:41.483Z,59.46
2023-05-08T02:02:43.047Z,59.86
2023-05-08T02:04:44.444Z,59.92
2023-05-08T02:06:45.847Z,60.08
2023-05-08T02:08:47.196Z,60.01
2023-05-08T02:10:49.800Z,60.21
2023-05-08T02:12:51.209Z,59.96
2023-05-08T02:14:53.043Z,60.24
2023-05-08T02:16:54.369Z,60.05
2023-05-08T02:18:55.963Z,60.21
2023-05-08T02:20:57.395Z,60.37
2023-05-08T02:22:58.714Z,60.11
2023-05-08T02:25:00.010Z,60.10
2023-05-08T02:27:02.152Z,60.39
2023-05-08T02:29:03.670Z,60.46
2023-05-08T02:31:04.981Z,60.11
2023-05-08T02:33:06.334Z,60.01
2023-05-08T02:35:07.682Z,60.40
2023-05-08T02:37:09.014Z,60.43
2023-05-08T02:39:10.312Z,60.58
2023-05-08T02:41:11.675Z,59.96
2023-05-08T02:43:12.993Z,60.07
2023-05-08T02:45:14.368Z,60.32
2023-05-08T02:47:15.941Z,60.22
2023-05-08T02:49:17.244Z,60.07
2023-05-08T02:51:18.574Z,59.98
2023-05-08T02:53:19.868Z,60.35
2023-05-08T02:55:21.206Z,59.98
2023-05-08T02:57:22.574Z,60.17
2023-05-08T02:59:23.894Z,60.51
2023-05-08T03:01:25.501Z,60.37
2023-05-08T03:03:27.369Z,60.06
2023-05-08T03:05:28.947Z,60.04
2023-05-08T03:07:30.251Z,60.05
2023-05-08T03:09:31.551Z,59.80
2023-05-08T03:11:32.851Z,59.97
2023-05-08T03:13:34.243Z,60.21
2023-05-08T03:15:35.695Z,59.97
2023-05-08T03:17:37.150Z,60.21
2023-05-08T03:19:38.595Z,60.39
2023-05-08T03:21:39.894Z,59.86
2023-05-08T03:23:41.209Z,60.12
2023-05-08T03:25:42.533Z,59.87
2023-05-08T03:27:43.830Z,60.04
2023-05-08T03:29:45.541Z,60.44
2023-05-08T03:31:46.943Z,60.33
2023-05-08T03:33:48.349Z,60.54
2023-05-08T03:35:49.683Z,60.35
2023-05-08T03:37:51.482Z,60.04
2023-05-08T03:39:52.884Z,60.46
2023-05-08T03:41:54.223Z,60.45
2023-05-08T03:43:55.587Z,60.19
2023-05-08T03:45:56.889Z,60.69
2023-05-08T03:47:58.283Z,60.47
2023-05-08T03:49:59.707Z,60.10
2023-05-08T03:52:01.002Z,60.47
2023-05-08T03:54:02.343Z,59.94
2023-05-08T03:56:03.706Z,60.37
2023-05-08T03:58:05.101Z,59.89
2023-05-08T04:00:06.440Z,60.34
2023-05-08T04:02:09.265Z,60.43
2023-05-08T04:04:10.908Z,60.35
2023-05-08T04:06:12.331Z,60.46
2023-05-08T04:08:13.668Z,60.38
2023-05-08T04:10:15.196Z,59.81
2023-05-08T04:12:16.755Z,60.36
2023-05-08T04:14:18.092Z,59.63
2023-05-08T04:16:19.514Z,59.52
2023-05-08T04:18:20.989Z,59.20
2023-05-08T04:20:22.388Z,59.13
2023-05-08T04:22:23.755Z,59.46
2023-05-08T04:24:25.073Z,59.42
2023-05-08T04:26:26.436Z,59.85
2023-05-08T04:28:27.744Z,60.21
2023-05-08T04:30:29.043Z,60.37
2023-05-08T04:32:30.414Z,60.51
2023-05-08T04:34:31.848Z,60.36
2023-05-08T04:36:33.969Z,60.16
2023-05-08T04:38:35.305Z,59.95
2023-05-08T04:40:36.632Z,60.07
2023-05-08T04:42:39.555Z,60.05
2023-05-08T04:44:40.955Z,60.01
2023-05-08T04:46:42.363Z,59.58
2023-05-08T04:48:43.771Z,59.85
2023-05-08T04:50:45.106Z,59.87
2023-05-08T04:52:46.437Z,59.36
2023-05-08T04:54:47.766Z,59.44
2023-05-08T04:56:49.115Z,59.67
2023-05-08T04:58:51.294Z,59.59
2023-05-08T05:00:52.616Z,60.09
2023-05-08T05:02:53.985Z,60.07
2023-05-08T05:04:58.687Z,59.84
2023-05-08T05:07:00.186Z,60.19
2023-05-08T05:09:02.735Z,59.66
2023-05-08T05:11:04.030Z,59.71
2023-05-08T05:13:05.433Z,59.91
2023-05-08T05:15:06.830Z,60.07
2023-05-08T05:17:08.353Z,60.44
2023-05-08T05:19:09.875Z,60.41
2023-05-08T05:21:11.530Z,59.97
2023-05-08T05:23:12.864Z,60.69
2023-05-08T05:25:14.337Z,60.30
2023-05-08T05:27:15.869Z,60.41
2023-05-08T05:29:17.186Z,60.73
2023-05-08T05:31:18.563Z,60.76
2023-05-08T05:33:20.098Z,60.50
2023-05-08T05:35:22.128Z,60.74
2023-05-08T05:37:24.360Z,61.06
2023-05-08T05:39:25.731Z,60.51
2023-05-08T05:41:27.077Z,61.12
2023-05-08T05:43:28.395Z,60.50
2023-05-08T05:45:31.871Z,60.93
2023-05-08T05:47:34.564Z,60.74
2023-05-08T05:49:36.040Z,61.26
2023-05-08T05:51:37.449Z,61.33
2023-05-08T05:53:38.777Z,60.63
2023-05-08T05:55:40.075Z,61.06
2023-05-08T05:57:41.463Z,61.23
2023-05-08T05:59:43.535Z,60.54
2023-05-08T06:01:44.890Z,60.48
2023-05-08T06:03:46.451Z,60.32
2023-05-08T06:05:48.000Z,60.35
2023-05-08T06:07:49.370Z,60.39
2023-05-08T06:09:51.289Z,60.02
2023-05-08T06:11:52.623Z,59.88
2023-05-08T06:13:53.958Z,60.30
2023-05-08T06:15:56.546Z,60.39
2023-05-08T06:17:58.260Z,59.96
2023-05-08T06:19:59.628Z,60.07
2023-05-08T06:22:01.139Z,60.11
2023-05-08T06:24:02.508Z,59.62
2023-05-08T06:26:03.915Z,60.02
2023-05-08T06:28:06.706Z,60.25
2023-05-08T06:30:08.577Z,60.15
2023-05-08T06:32:09.922Z,60.45
2023-05-08T06:34:11.263Z,60.15
2023-05-08T06:36:12.571Z,59.35
2023-05-08T06:38:14.159Z,60.04
2023-05-08T06:40:15.526Z,59.68
2023-05-08T06:42:16.867Z,59.01
2023-05-08T06:44:18.275Z,59.91
2023-05-08T06:46:19.701Z,59.62
2023-05-08T06:48:21.067Z,59.79
2023-05-08T06:50:22.427Z,60.10
2023-05-08T06:52:25.583Z,60.10
2023-05-08T06:54:26.964Z,59.60
2023-05-08T06:56:28.261Z,59.83
2023-05-08T06:58:31.566Z,59.48
2023-05-08T07:00:32.923Z,59.54
2023-05-08T07:02:34.300Z,59.50
2023-05-08T07:04:35.726Z,59.16
2023-05-08T07:06:37.104Z,59.15
2023-05-08T07:08:38.406Z,59.00
2023-05-08T07:10:40.126Z,58.96
2023-05-08T07:12:41.577Z,59.00
2023-05-08T07:14:43.324Z,58.35
2023-05-08T07:16:44.758Z,58.16
2023-05-08T07:18:46.059Z,58.46
2023-05-08T07:20:47.418Z,58.20
2023-05-08T07:22:48.772Z,57.65
2023-05-08T07:24:50.217Z,57.71
2023-05-08T07:26:51.649Z,57.65
2023-05-08T07:28:54.303Z,57.50
2023-05-08T07:30:55.916Z,57.38
2023-05-08T07:32:57.378Z,57.43
2023-05-08T07:34:58.956Z,57.13
2023-05-08T07:37:00.425Z,56.98
2023-05-08T07:39:01.741Z,57.19
2023-05-08T07:41:05.093Z,56.79
2023-05-08T07:43:06.475Z,56.84
2023-05-08T07:45:07.870Z,56.65
2023-05-08T07:47:09.427Z,57.13
2023-05-08T07:49:11.047Z,56.49
2023-05-08T07:51:12.394Z,56.74
2023-05-08T07:53:13.727Z,49.36
2023-05-08T07:55:15.214Z,49.22
2023-05-08T07:57:16.731Z,48.21
2023-05-08T07:59:18.520Z,46.13
2023-05-08T08:01:19.896Z,43.21
2023-05-08T08:03:21.292Z,43.64
2023-05-08T08:05:22.843Z,42.32
2023-05-08T08:07:24.181Z,42.13
2023-05-08T08:09:25.781Z,41.45
2023-05-08T08:11:27.455Z,43.32
2023-05-08T08:13:29.030Z,43.34
2023-05-08T08:15:30.484Z,43.69
2023-05-08T08:17:31.926Z,44.74
2023-05-08T08:19:33.305Z,44.93
2023-05-08T08:21:34.765Z,45.51
2023-05-08T08:23:36.143Z,45.25
2023-05-08T08:25:37.455Z,46.38
2023-05-08T08:27:39.149Z,46.51
2023-05-08T08:29:40.547Z,47.26
2023-05-08T08:31:41.917Z,46.96
2023-05-08T08:33:43.338Z,48.15
2023-05-08T08:35:44.715Z,49.04
2023-05-08T08:37:46.049Z,48.89
2023-05-08T08:39:48.471Z,49.38
2023-05-08T08:41:49.855Z,49.91
2023-05-08T08:43:51.238Z,50.20
2023-05-08T08:45:52.789Z,50.52
2023-05-08T08:47:54.201Z,50.29
2023-05-08T08:49:55.566Z,49.93
2023-05-08T08:51:57.399Z,50.66
2023-05-08T08:53:58.736Z,51.48
2023-05-08T08:56:00.055Z,50.70
2023-05-08T08:58:01.383Z,50.39
2023-05-08T09:00:04.496Z,50.71
2023-05-08T09:02:05.902Z,51.66
2023-05-08T09:04:07.400Z,51.20
2023-05-08T09:06:08.835Z,50.09
2023-05-08T09:08:10.224Z,49.97
2023-05-08T09:10:15.474Z,50.81
2023-05-08T09:12:16.834Z,51.19
2023-05-08T09:14:18.136Z,51.14
2023-05-08T09:16:19.492Z,51.28
2023-05-08T09:18:20.811Z,51.58
2023-05-08T09:20:22.155Z,52.06
2023-05-08T09:22:24.401Z,52.10
2023-05-08T09:24:29.513Z,52.40
2023-05-08T09:26:32.616Z,52.81
2023-05-08T09:28:33.973Z,53.12
2023-05-08T09:30:35.283Z,53.00
2023-05-08T09:32:36.745Z,53.20
2023-05-08T09:34:38.091Z,51.64
2023-05-08T09:36:42.242Z,51.80
2023-05-08T09:38:44.206Z,51.09
2023-05-08T09:40:45.599Z,50.88
2023-05-08T09:42:46.974Z,51.43
2023-05-08T09:44:48.465Z,51.73
2023-05-08T09:46:50.608Z,51.42
2023-05-08T09:48:51.992Z,51.41
2023-05-08T09:50:53.296Z,50.82
2023-05-08T09:52:54.662Z,50.90
2023-05-08T09:54:56.006Z,50.76
2023-05-08T09:56:57.380Z,51.25
2023-05-08T09:58:58.693Z,51.06
2023-05-08T10:01:00.579Z,50.94
2023-05-08T10:03:02.382Z,51.60
2023-05-08T10:05:05.717Z,50.99
2023-05-08T10:07:07.178Z,51.89
2023-05-08T10:09:08.588Z,52.65
2023-05-08T10:11:09.896Z,53.26
2023-05-08T10:13:11.232Z,53.99
2023-05-08T10:15:12.582Z,53.95
2023-05-08T10:17:14.035Z,54.29
2023-05-08T10:19:15.521Z,54.36
2023-05-08T10:21:16.827Z,54.30
2023-05-08T10:23:19.375Z,54.01
2023-05-08T10:25:20.822Z,54.06
2023-05-08T10:27:24.526Z,54.17
2023-05-08T10:29:26.004Z,54.15
2023-05-08T10:31:27.414Z,54.20
2023-05-08T10:33:29.609Z,54.10
2023-05-08T10:35:32.442Z,54.74
2023-05-08T10:37:33.767Z,54.69
2023-05-08T10:39:35.081Z,54.98
2023-05-08T10:41:36.392Z,54.84
2023-05-08T10:43:37.712Z,55.39
2023-05-08T10:45:39.030Z,55.17
2023-05-08T10:47:40.450Z,55.38
2023-05-08T10:49:41.814Z,55.64
2023-05-08T10:51:43.176Z,55.27
2023-05-08T10:53:44.469Z,55.63
2023-05-08T10:55:45.798Z,55.53
2023-05-08T10:57:47.100Z,55.56
2023-05-08T10:59:48.399Z,56.02
2023-05-08T11:01:50.101Z,56.26
2023-05-08T11:03:51.717Z,56.05
2023-05-08T11:05:53.217Z,56.12
2023-05-08T11:07:54.563Z,56.23
2023-05-08T11:09:55.866Z,56.19
2023-05-08T11:11:57.161Z,56.06
2023-05-08T11:13:58.451Z,56.08
2023-05-08T11:15:59.800Z,56.41
2023-05-08T11:18:01.163Z,56.23
2023-05-08T11:20:03.269Z,56.21
2023-05-08T11:22:04.580Z,56.31
2023-05-08T11:24:05.886Z,56.09
2023-05-08T11:26:07.289Z,55.77
2023-05-08T11:28:08.592Z,55.59
2023-05-08T11:30:12.875Z,55.54
2023-05-08T11:32:14.460Z,55.41
2023-05-08T11:34:15.756Z,55.22
2023-05-08T11:36:17.156Z,55.02
2023-05-08T11:38:18.621Z,54.89
2023-05-08T11:40:19.950Z,55.25
2023-05-08T11:42:21.288Z,55.01
2023-05-08T11:44:22.589Z,54.75
2023-05-08T11:46:23.959Z,54.80
2023-05-08T11:48:25.316Z,54.83
2023-05-08T11:50:26.637Z,54.72
2023-05-08T11:52:27.991Z,54.78
2023-05-08T11:54:29.393Z,54.70
2023-05-08T11:56:30.696Z,54.49
2023-05-08T11:58:32.093Z,54.53
2023-05-08T12:00:33.431Z,54.77
2023-05-08T12:02:34.830Z,54.77
2023-05-08T12:04:38.881Z,54.79
2023-05-08T12:06:40.228Z,54.58
2023-05-08T12:08:41.540Z,54.37
2023-05-08T12:10:43.989Z,54.26
2023-05-08T12:12:47.019Z,54.40
2023-05-08T12:14:48.365Z,54.28
2023-05-08T12:16:49.894Z,54.04
2023-05-08T12:18:51.674Z,54.46
2023-05-08T12:20:53.273Z,53.75
2023-05-08T12:22:54.683Z,53.61
2023-05-08T12:24:56.002Z,54.01
2023-05-08T12:26:57.411Z,53.58
2023-05-08T12:28:58.739Z,54.00
2023-05-08T12:31:00.061Z,53.65
2023-05-08T12:33:02.250Z,54.10
2023-05-08T12:35:03.592Z,53.67
2023-05-08T12:37:04.939Z,54.00
2023-05-08T12:39:06.324Z,53.93
2023-05-08T12:41:10.041Z,53.88
2023-05-08T12:43:11.445Z,53.91
2023-05-08T12:45:12.761Z,53.76
2023-05-08T12:47:14.062Z,53.80
2023-05-08T12:49:15.372Z,54.06
2023-05-08T12:51:16.672Z,53.84
2023-05-08T12:53:18.004Z,54.21
2023-05-08T12:55:19.305Z,54.18
2023-05-08T12:57:22.692Z,53.96
2023-05-08T12:59:24.069Z,54.10
2023-05-08T13:01:25.435Z,53.82
2023-05-08T13:03:26.905Z,54.18
2023-05-08T13:05:31.244Z,53.93
2023-05-08T13:07:32.689Z,54.20
2023-05-08T13:09:33.998Z,54.26
2023-05-08T13:11:35.521Z,54.04
2023-05-08T13:13:36.887Z,54.24
2023-05-08T13:15:38.269Z,54.32
2023-05-08T13:17:39.704Z,53.96
2023-05-08T13:19:41.045Z,54.52
2023-05-08T13:21:44.599Z,54.07
2023-05-08T13:23:46.065Z,54.13
2023-05-08T13:25:48.791Z,54.24
2023-05-08T13:27:50.116Z,54.35
2023-05-08T13:29:51.455Z,54.36
2023-05-08T13:31:52.914Z,54.60
2023-05-08T13:33:54.501Z,54.54
2023-05-08T13:35:56.231Z,54.60
2023-05-08T13:37:57.556Z,54.35
2023-05-08T13:39:58.865Z,54.32
2023-05-08T13:42:00.184Z,54.46
2023-05-08T13:44:02.225Z,54.28
2023-05-08T13:46:04.818Z,54.63
2023-05-08T13:48:08.160Z,54.51
2023-05-08T13:50:09.992Z,54.13
2023-05-08T13:52:11.332Z,54.32
2023-05-08T13:54:12.631Z,54.39
2023-05-08T13:56:13.942Z,54.29
2023-05-08T13:58:15.289Z,54.48
2023-05-08T14:00:16.782Z,54.80
2023-05-08T14:02:18.244Z,54.90
2023-05-08T14:04:19.707Z,54.40
2023-05-08T14:06:21.228Z,54.51
2023-05-08T14:08:22.579Z,54.63
2023-05-08T14:10:23.937Z,54.40
2023-05-08T14:12:25.474Z,54.96
2023-05-08T14:14:26.865Z,54.92
2023-05-08T14:16:28.280Z,54.73
2023-05-08T14:18:35.741Z,55.00
2023-05-08T14:20:37.058Z,54.73
2023-05-08T14:22:38.473Z,54.75
2023-05-08T14:24:40.008Z,55.02
2023-05-08T14:26:45.024Z,55.10
2023-05-08T14:28:46.464Z,55.19
2023-05-08T14:30:47.772Z,54.73
2023-05-08T14:32:49.178Z,55.18
2023-05-08T14:34:50.546Z,55.04
2023-05-08T14:36:54.788Z,54.82
2023-05-08T14:38:56.146Z,54.83
2023-05-08T14:40:57.454Z,54.86
2023-05-08T14:42:58.876Z,55.34
2023-05-08T14:45:00.454Z,55.27
2023-05-08T14:47:02.190Z,55.09
2023-05-08T14:49:03.498Z,54.97
2023-05-08T14:51:04.862Z,55.20
2023-05-08T14:53:06.335Z,54.98
2023-05-08T14:55:07.971Z,54.99
2023-05-08T14:57:09.652Z,54.96
2023-05-08T14:59:10.962Z,55.07
2023-05-08T15:01:12.259Z,55.58
2023-05-08T15:03:13.709Z,55.14
2023-05-08T15:05:19.907Z,55.28
2023-05-08T15:07:21.775Z,55.15
2023-05-08T15:09:23.147Z,55.21
2023-05-08T15:11:24.490Z,55.49
2023-05-08T15:13:25.933Z,55.39
2023-05-08T15:15:27.312Z,55.20
2023-05-08T15:17:28.670Z,55.29
2023-05-08T15:19:30.003Z,55.37
2023-05-08T15:21:31.366Z,55.50
2023-05-08T15:23:32.807Z,55.54
2023-05-08T15:25:34.111Z,55.51
2023-05-08T15:27:35.525Z,55.89
2023-05-08T15:29:36.820Z,55.78
2023-05-08T15:31:38.206Z,55.63
2023-05-08T15:33:44.606Z,55.74
2023-05-08T15:35:46.005Z,55.85
2023-05-08T15:37:47.351Z,55.71
2023-05-08T15:39:50.185Z,56.06
2023-05-08T15:41:51.480Z,55.95
2023-05-08T15:43:52.818Z,55.91
2023-05-08T15:45:54.124Z,55.84
2023-05-08T15:47:55.579Z,55.69
2023-05-08T15:49:56.891Z,55.81
2023-05-08T15:51:58.215Z,55.87
2023-05-08T15:53:59.569Z,56.05
2023-05-08T15:56:00.944Z,55.96
2023-05-08T15:58:02.258Z,56.06
2023-05-08T16:00:03.575Z,56.25
2023-05-08T16:02:04.926Z,56.22
2023-05-08T16:04:06.268Z,56.23
2023-05-08T16:06:07.595Z,56.41
2023-05-08T16:08:12.287Z,56.30
2023-05-08T16:10:13.681Z,56.35
2023-05-08T16:12:15.064Z,56.32
2023-05-08T16:14:20.094Z,56.59
2023-05-08T16:16:21.471Z,56.54
2023-05-08T16:18:23.101Z,56.57
2023-05-08T16:20:24.502Z,56.74
2023-05-08T16:22:25.812Z,56.73
2023-05-08T16:24:27.149Z,56.60
2023-05-08T16:26:28.497Z,56.84
2023-05-08T16:28:29.889Z,56.92
2023-05-08T16:30:31.453Z,56.73
2023-05-08T16:32:32.854Z,56.46
2023-05-08T16:34:35.301Z,56.95
2023-05-08T16:36:36.617Z,57.15
2023-05-08T16:38:37.963Z,57.00
2023-05-08T16:40:39.419Z,56.80
2023-05-08T16:42:40.861Z,56.78
2023-05-08T16:44:42.363Z,56.94
2023-05-08T16:46:43.792Z,56.85
2023-05-08T16:48:45.464Z,56.81
2023-05-08T16:50:46.811Z,56.64
2023-05-08T16:52:48.546Z,56.81
2023-05-08T16:54:50.026Z,56.71
2023-05-08T16:56:51.562Z,56.95
2023-05-08T16:58:53.432Z,56.93
2023-05-08T17:00:57.777Z,56.75
2023-05-08T17:02:59.329Z,57.02
2023-05-08T17:05:00.697Z,57.02
2023-05-08T17:07:04.991Z,56.98
2023-05-08T17:09:06.368Z,56.94
2023-05-08T17:11:07.721Z,57.07
2023-05-08T17:13:09.122Z,57.30
2023-05-08T17:15:10.596Z,57.26
2023-05-08T17:17:12.274Z,57.07
2023-05-08T17:19:19.436Z,57.09
2023-05-08T17:21:20.784Z,57.26
2023-05-08T17:23:22.149Z,57.23
2023-05-08T17:25:23.504Z,57.30
2023-05-08T17:27:27.508Z,57.26
2023-05-08T17:29:29.056Z,57.12
2023-05-08T17:31:30.432Z,57.32
2023-05-08T17:33:31.790Z,57.22
2023-05-08T17:35:34.242Z,57.19
2023-05-08T17:37:35.563Z,57.26
2023-05-08T17:39:36.856Z,57.21
2023-05-08T17:41:38.196Z,57.36
2023-05-08T17:43:39.801Z,57.36
2023-05-08T17:45:41.233Z,57.34
2023-05-08T17:47:42.608Z,57.33
2023-05-08T17:49:44.028Z,57.17
2023-05-08T17:51:45.810Z,57.25
2023-05-08T17:53:47.171Z,57.25
2023-05-08T17:55:48.553Z,57.35
2023-05-08T17:57:49.875Z,57.42
2023-05-08T17:59:51.261Z,57.62
2023-05-08T18:01:52.658Z,57.55
2023-05-08T18:03:54.057Z,57.48
2023-05-08T18:05:55.454Z,57.63
2023-05-08T18:07:56.857Z,57.59
2023-05-08T18:09:58.270Z,57.70
2023-05-08T18:12:02.452Z,57.70
2023-05-08T18:14:06.841Z,57.64
2023-05-08T18:16:08.249Z,57.75
2023-05-08T18:18:09.760Z,57.65
2023-05-08T18:20:17.294Z,57.67
2023-05-08T18:22:18.621Z,57.64
2023-05-08T18:24:20.134Z,57.40
2023-05-08T18:26:24.520Z,57.22
2023-05-08T18:28:28.851Z,57.17
2023-05-08T18:30:31.450Z,57.18
2023-05-08T18:32:32.836Z,57.11
2023-05-08T18:34:37.105Z,56.71
2023-05-08T18:36:38.471Z,56.74
2023-05-08T18:38:41.636Z,56.37
2023-05-08T18:41:00.999Z,56.37
2023-05-08T18:43:02.327Z,56.03
2023-05-08T18:45:05.715Z,55.91
2023-05-08T18:47:07.195Z,55.82
2023-05-08T18:49:08.536Z,55.99
2023-05-08T18:51:09.972Z,55.67
2023-05-08T18:53:12.417Z,55.86
2023-05-08T18:55:13.765Z,56.07
2023-05-08T18:57:15.169Z,55.96
2023-05-08T18:59:16.542Z,55.75
2023-05-08T19:01:20.125Z,55.93
2023-05-08T19:03:21.678Z,56.02
2023-05-08T19:05:23.057Z,55.98
2023-05-08T19:07:24.412Z,56.31
2023-05-08T19:09:25.781Z,55.82
2023-05-08T19:11:27.153Z,55.88
2023-05-08T19:13:28.619Z,55.90
2023-05-08T19:15:30.186Z,55.75
2023-05-08T19:17:31.638Z,55.79
2023-05-08T19:19:36.343Z,55.78
2023-05-08T19:21:37.894Z,55.88
2023-05-08T19:23:39.266Z,55.71
2023-05-08T19:25:40.737Z,55.78
2023-05-08T19:27:42.070Z,55.72
2023-05-08T19:29:43.411Z,55.79
2023-05-08T19:31:44.783Z,55.69
2023-05-08T19:33:47.373Z,55.94
2023-05-08T19:35:48.763Z,55.70
2023-05-08T19:37:55.972Z,55.83
2023-05-08T19:39:58.187Z,55.66
2023-05-08T19:42:02.728Z,55.78
2023-05-08T19:44:04.098Z,55.47
2023-05-08T19:46:05.578Z,55.84
2023-05-08T19:48:13.200Z,55.56
2023-05-08T19:50:19.050Z,55.23
2023-05-08T19:52:20.414Z,55.43
2023-05-08T19:54:21.730Z,55.18
2023-05-08T19:56:23.102Z,55.24
2023-05-08T19:58:24.471Z,55.53
2023-05-08T20:00:25.971Z,55.35
2023-05-08T20:02:27.346Z,55.54
2023-05-08T20:04:28.768Z,55.50
2023-05-08T20:06:30.496Z,55.69
2023-05-08T20:08:31.822Z,55.59
2023-05-08T20:10:36.286Z,55.46
2023-05-08T20:12:37.820Z,55.68
2023-05-08T20:14:39.132Z,55.88
2023-05-08T20:16:41.833Z,55.85
2023-05-08T20:18:46.299Z,55.67
2023-05-08T20:20:47.697Z,55.92
2023-05-08T20:22:54.944Z,55.64
2023-05-08T20:24:56.269Z,55.53
2023-05-08T20:27:00.423Z,55.57
2023-05-08T20:29:01.800Z,55.43
2023-05-08T20:31:03.212Z,55.62
2023-05-08T20:33:05.171Z,55.39
2023-05-08T20:35:06.758Z,55.52
2023-05-08T20:37:08.126Z,55.33
2023-05-08T20:39:09.488Z,55.56
2023-05-08T20:41:10.959Z,55.38
2023-05-08T20:43:12.501Z,55.48
2023-05-08T20:45:13.851Z,55.55
2023-05-08T20:47:15.249Z,55.52
2023-05-08T20:49:17.217Z,55.71
2023-05-08T20:51:18.602Z,55.68
2023-05-08T20:53:19.922Z,55.57
2023-05-08T20:55:21.310Z,55.87
2023-05-08T20:57:22.715Z,55.89
2023-05-08T20:59:24.076Z,55.95
2023-05-08T21:01:25.460Z,55.91
2023-05-08T21:03:26.956Z,55.78
2023-05-08T21:05:28.363Z,55.61
2023-05-08T21:07:29.709Z,55.79
2023-05-08T21:09:31.056Z,55.53
2023-05-08T21:11:32.431Z,55.65
2023-05-08T21:13:33.756Z,55.50
2023-05-08T21:15:35.219Z,55.41
2023-05-08T21:17:36.595Z,47.82
2023-05-08T21:19:38.148Z,46.10
2023-05-08T21:21:39.493Z,50.87
2023-05-08T21:23:40.915Z,48.57
2023-05-08T21:25:42.225Z,48.74
2023-05-08T21:27:43.578Z,47.95
2023-05-08T21:29:44.913Z,49.08
2023-05-08T21:31:46.337Z,48.88
2023-05-08T21:33:47.859Z,49.66
2023-05-08T21:35:49.240Z,50.49
2023-05-08T21:37:51.587Z,50.14
2023-05-08T21:39:54.578Z,51.22
2023-05-08T21:41:55.987Z,51.33
2023-05-08T21:43:57.451Z,51.87
2023-05-08T21:45:58.884Z,51.99
2023-05-08T21:48:00.545Z,52.29
2023-05-08T21:50:02.178Z,52.10
2023-05-08T21:52:03.517Z,52.24
2023-05-08T21:54:04.837Z,52.26
2023-05-08T21:56:06.192Z,52.74
2023-05-08T21:58:07.530Z,52.67
2023-05-08T22:00:09.289Z,52.63
2023-05-08T22:02:10.775Z,52.58
2023-05-08T22:04:12.176Z,52.67
2023-05-08T22:06:13.520Z,52.55
2023-05-08T22:08:14.856Z,52.94
2023-05-08T22:10:16.309Z,53.38
2023-05-08T22:12:23.421Z,52.07
2023-05-08T22:14:24.736Z,52.62
2023-05-08T22:16:26.103Z,52.79
2023-05-08T22:18:27.579Z,53.62
2023-05-08T22:20:28.922Z,52.96
2023-05-08T22:22:30.829Z,53.51
2023-05-08T22:24:32.152Z,53.64
2023-05-08T22:26:33.466Z,53.63
2023-05-08T22:28:34.870Z,52.47
2023-05-08T22:30:36.362Z,53.07
2023-05-08T22:32:37.791Z,53.74
2023-05-08T22:34:39.160Z,53.23
2023-05-08T22:36:40.570Z,53.64
2023-05-08T22:38:41.922Z,53.71
2023-05-08T22:40:43.366Z,53.24
2023-05-08T22:42:44.733Z,52.93
2023-05-08T22:44:46.039Z,52.96
2023-05-08T22:46:47.493Z,52.96
2023-05-08T22:48:48.911Z,53.51
2023-05-08T22:50:50.612Z,53.14
2023-05-08T22:52:51.959Z,54.08
2023-05-08T22:54:53.268Z,53.25
2023-05-08T22:56:54.608Z,53.41
2023-05-08T22:58:56.012Z,53.53
2023-05-08T23:00:57.484Z,53.74
2023-05-08T23:02:59.156Z,53.88
2023-05-08T23:05:00.546Z,52.26
2023-05-08T23:07:02.184Z,52.60
2023-05-08T23:09:04.425Z,52.57
2023-05-08T23:11:05.864Z,52.93
2023-05-08T23:13:07.265Z,53.24
2023-05-08T23:15:08.662Z,52.81
2023-05-08T23:17:13.889Z,53.51
2023-05-08T23:19:15.368Z,50.88
2023-05-08T23:21:16.772Z,52.46
2023-05-08T23:23:18.112Z,52.54
2023-05-08T23:25:19.536Z,52.40
2023-05-08T23:27:20.924Z,52.84
2023-05-08T23:29:22.288Z,52.84
2023-05-08T23:31:23.704Z,52.94
2023-05-08T23:33:25.068Z,52.76
2023-05-08T23:35:26.478Z,53.09
2023-05-08T23:37:27.853Z,53.10
2023-05-08T23:39:29.220Z,52.92
2023-05-08T23:41:30.594Z,52.93
2023-05-08T23:43:32.180Z,53.42
2023-05-08T23:45:33.580Z,53.63
2023-05-08T23:47:34.986Z,53.85
2023-05-08T23:49:36.376Z,54.35
2023-05-08T23:51:37.762Z,54.16
2023-05-08T23:53:39.101Z,54.30
2023-05-08T23:55:40.648Z,54.80
2023-05-08T23:57:41.998Z,54.98
2023-05-08T23:59:43.401Z,54.62
